sensor_id;sensor_type;location;lat;lon;timestamp;temperature;humidity
64715;DHT22;51144;53.002;6.506;2023-05-13T00:02:02;12.50;99.90
64715;DHT22;51144;53.002;6.506;2023-05-13T00:04:28;12.50;99.90
64715;DHT22;51144;53.002;6.506;2023-05-13T00:06:54;12.50;99.90
64715;DHT22;51144;53.002;6.506;2023-05-13T00:09:19;12.40;99.90
64715;DHT22;51144;53.002;6.506;2023-05-13T00:11:45;12.40;99.90
64715;DHT22;51144;53.002;6.506;2023-05-13T00:14:10;12.40;99.90
64715;DHT22;51144;53.002;6.506;2023-05-13T00:16:36;12.30;99.90
64715;DHT22;51144;53.002;6.506;2023-05-13T00:19:02;12.30;99.90
64715;DHT22;51144;53.002;6.506;2023-05-13T00:21:27;12.30;99.90
64715;DHT22;51144;53.002;6.506;2023-05-13T00:23:53;12.30;99.90
64715;DHT22;51144;53.002;6.506;2023-05-13T00:26:18;12.20;99.90
64715;DHT22;51144;53.002;6.506;2023-05-13T00:28:44;12.20;99.90
64715;DHT22;51144;53.002;6.506;2023-05-13T00:31:10;12.10;99.90
64715;DHT22;51144;53.002;6.506;2023-05-13T00:33:35;12.10;99.90
64715;DHT22;51144;53.002;6.506;2023-05-13T00:36:01;12.10;99.90
64715;DHT22;51144;53.002;6.506;2023-05-13T00:38:27;12.10;99.90
64715;DHT22;51144;53.002;6.506;2023-05-13T00:40:52;12.10;99.90
64715;DHT22;51144;53.002;6.506;2023-05-13T00:43:18;12.00;99.90
64715;DHT22;51144;53.002;6.506;2023-05-13T00:45:43;12.00;99.90
64715;DHT22;51144;53.002;6.506;2023-05-13T00:48:09;12.00;99.90
64715;DHT22;51144;53.002;6.506;2023-05-13T00:50:35;11.90;99.90
64715;DHT22;51144;53.002;6.506;2023-05-13T00:53:00;11.90;99.90
64715;DHT22;51144;53.002;6.506;2023-05-13T00:55:26;11.90;99.90
64715;DHT22;51144;53.002;6.506;2023-05-13T00:57:51;11.90;99.90
64715;DHT22;51144;53.002;6.506;2023-05-13T01:00:17;11.80;99.90
64715;DHT22;51144;53.002;6.506;2023-05-13T01:02:55;11.80;99.90
64715;DHT22;51144;53.002;6.506;2023-05-13T01:05:30;11.80;99.90
64715;DHT22;51144;53.002;6.506;2023-05-13T01:08:22;11.70;99.90
64715;DHT22;51144;53.002;6.506;2023-05-13T01:13:22;11.70;99.90
64715;DHT22;51144;53.002;6.506;2023-05-13T01:15:49;11.70;99.90
64715;DHT22;51144;53.002;6.506;2023-05-13T01:18:24;11.70;99.90
64715;DHT22;51144;53.002;6.506;2023-05-13T01:20:49;11.60;99.90
64715;DHT22;51144;53.002;6.506;2023-05-13T01:23:15;11.60;99.90
64715;DHT22;51144;53.002;6.506;2023-05-13T01:25:40;11.60;99.90
64715;DHT22;51144;53.002;6.506;2023-05-13T01:28:06;11.60;99.90
64715;DHT22;51144;53.002;6.506;2023-05-13T01:30:32;11.60;99.90
64715;DHT22;51144;53.002;6.506;2023-05-13T01:32:58;11.50;99.90
64715;DHT22;51144;53.002;6.506;2023-05-13T01:35:24;11.50;99.90
64715;DHT22;51144;53.002;6.506;2023-05-13T01:37:51;11.50;99.90
64715;DHT22;51144;53.002;6.506;2023-05-13T01:40:17;11.50;99.90
64715;DHT22;51144;53.002;6.506;2023-05-13T01:42:43;11.40;99.90
64715;DHT22;51144;53.002;6.506;2023-05-13T01:45:08;11.40;99.90
64715;DHT22;51144;53.002;6.506;2023-05-13T01:47:34;11.40;99.90
64715;DHT22;51144;53.002;6.506;2023-05-13T01:49:59;11.40;99.90
64715;DHT22;51144;53.002;6.506;2023-05-13T01:52:25;11.30;99.90
64715;DHT22;51144;53.002;6.506;2023-05-13T01:54:50;11.30;99.90
64715;DHT22;51144;53.002;6.506;2023-05-13T01:57:16;11.30;99.90
64715;DHT22;51144;53.002;6.506;2023-05-13T01:59:41;11.20;99.90
64715;DHT22;51144;53.002;6.506;2023-05-13T02:02:07;11.30;99.90
64715;DHT22;51144;53.002;6.506;2023-05-13T02:04:32;11.20;99.90
64715;DHT22;51144;53.002;6.506;2023-05-13T02:06:58;11.20;99.90
64715;DHT22;51144;53.002;6.506;2023-05-13T02:09:23;11.20;99.90
64715;DHT22;51144;53.002;6.506;2023-05-13T02:11:49;11.10;99.90
64715;DHT22;51144;53.002;6.506;2023-05-13T02:14:15;11.10;99.90
64715;DHT22;51144;53.002;6.506;2023-05-13T02:16:40;11.10;99.90
64715;DHT22;51144;53.002;6.506;2023-05-13T02:19:06;11.00;99.90
64715;DHT22;51144;53.002;6.506;2023-05-13T02:21:32;11.00;99.90
64715;DHT22;51144;53.002;6.506;2023-05-13T02:23:57;11.00;99.90
64715;DHT22;51144;53.002;6.506;2023-05-13T02:26:23;11.00;99.90
64715;DHT22;51144;53.002;6.506;2023-05-13T02:28:48;11.00;99.90
64715;DHT22;51144;53.002;6.506;2023-05-13T02:31:14;11.00;99.90
64715;DHT22;51144;53.002;6.506;2023-05-13T02:33:39;11.00;99.90
64715;DHT22;51144;53.002;6.506;2023-05-13T02:36:05;11.00;99.90
64715;DHT22;51144;53.002;6.506;2023-05-13T02:38:31;10.90;99.90
64715;DHT22;51144;53.002;6.506;2023-05-13T02:40:56;10.90;99.90
64715;DHT22;51144;53.002;6.506;2023-05-13T02:43:22;10.90;99.90
64715;DHT22;51144;53.002;6.506;2023-05-13T02:45:49;10.90;99.90
64715;DHT22;51144;53.002;6.506;2023-05-13T02:48:14;10.90;99.90
64715;DHT22;51144;53.002;6.506;2023-05-13T02:50:40;10.90;99.90
64715;DHT22;51144;53.002;6.506;2023-05-13T02:53:05;10.80;99.90
64715;DHT22;51144;53.002;6.506;2023-05-13T02:55:31;10.80;99.90
64715;DHT22;51144;53.002;6.506;2023-05-13T02:57:56;10.80;99.90
64715;DHT22;51144;53.002;6.506;2023-05-13T03:00:22;10.80;99.90
64715;DHT22;51144;53.002;6.506;2023-05-13T03:02:47;10.70;99.90
64715;DHT22;51144;53.002;6.506;2023-05-13T03:05:13;10.70;99.90
64715;DHT22;51144;53.002;6.506;2023-05-13T03:07:38;10.70;99.90
64715;DHT22;51144;53.002;6.506;2023-05-13T03:10:04;10.70;99.90
64715;DHT22;51144;53.002;6.506;2023-05-13T03:12:30;10.70;99.90
64715;DHT22;51144;53.002;6.506;2023-05-13T03:14:56;10.70;99.90
64715;DHT22;51144;53.002;6.506;2023-05-13T03:17:21;10.70;99.90
64715;DHT22;51144;53.002;6.506;2023-05-13T03:19:47;10.70;99.90
64715;DHT22;51144;53.002;6.506;2023-05-13T03:22:12;10.70;99.90
64715;DHT22;51144;53.002;6.506;2023-05-13T03:24:38;10.70;99.90
64715;DHT22;51144;53.002;6.506;2023-05-13T03:27:03;10.70;99.90
64715;DHT22;51144;53.002;6.506;2023-05-13T03:29:29;10.60;99.90
64715;DHT22;51144;53.002;6.506;2023-05-13T03:31:55;10.60;99.90
64715;DHT22;51144;53.002;6.506;2023-05-13T03:34:20;10.60;99.90
64715;DHT22;51144;53.002;6.506;2023-05-13T03:36:46;10.70;99.90
64715;DHT22;51144;53.002;6.506;2023-05-13T03:39:11;10.60;99.90
64715;DHT22;51144;53.002;6.506;2023-05-13T03:41:37;10.60;99.90
64715;DHT22;51144;53.002;6.506;2023-05-13T03:44:02;10.60;99.90
64715;DHT22;51144;53.002;6.506;2023-05-13T03:46:28;10.60;99.90
64715;DHT22;51144;53.002;6.506;2023-05-13T03:48:54;10.60;99.90
64715;DHT22;51144;53.002;6.506;2023-05-13T03:51:22;10.60;99.90
64715;DHT22;51144;53.002;6.506;2023-05-13T03:53:48;10.60;99.90
64715;DHT22;51144;53.002;6.506;2023-05-13T03:56:13;10.60;99.90
64715;DHT22;51144;53.002;6.506;2023-05-13T03:58:39;10.60;99.90
64715;DHT22;51144;53.002;6.506;2023-05-13T04:01:05;10.60;99.90
64715;DHT22;51144;53.002;6.506;2023-05-13T04:03:31;10.60;99.90
64715;DHT22;51144;53.002;6.506;2023-05-13T04:05:57;10.60;99.90
64715;DHT22;51144;53.002;6.506;2023-05-13T04:08:22;10.60;99.90
64715;DHT22;51144;53.002;6.506;2023-05-13T04:10:48;10.60;99.90
64715;DHT22;51144;53.002;6.506;2023-05-13T04:13:13;10.70;99.90
64715;DHT22;51144;53.002;6.506;2023-05-13T04:15:39;10.60;99.90
64715;DHT22;51144;53.002;6.506;2023-05-13T04:18:05;10.70;99.90
64715;DHT22;51144;53.002;6.506;2023-05-13T04:20:30;10.70;99.90
64715;DHT22;51144;53.002;6.506;2023-05-13T04:22:56;10.70;99.90
64715;DHT22;51144;53.002;6.506;2023-05-13T04:25:21;10.70;99.90
64715;DHT22;51144;53.002;6.506;2023-05-13T04:27:47;10.80;99.90
64715;DHT22;51144;53.002;6.506;2023-05-13T04:30:12;10.80;99.90
64715;DHT22;51144;53.002;6.506;2023-05-13T04:32:38;10.90;99.90
64715;DHT22;51144;53.002;6.506;2023-05-13T04:35:05;11.00;99.90
64715;DHT22;51144;53.002;6.506;2023-05-13T04:37:30;11.10;99.90
64715;DHT22;51144;53.002;6.506;2023-05-13T04:39:56;11.10;99.90
64715;DHT22;51144;53.002;6.506;2023-05-13T04:42:21;11.20;99.90
64715;DHT22;51144;53.002;6.506;2023-05-13T04:44:47;11.30;99.90
64715;DHT22;51144;53.002;6.506;2023-05-13T04:47:12;11.40;99.90
64715;DHT22;51144;53.002;6.506;2023-05-13T04:49:38;11.50;99.90
64715;DHT22;51144;53.002;6.506;2023-05-13T04:52:04;11.50;99.90
64715;DHT22;51144;53.002;6.506;2023-05-13T04:54:30;11.60;99.90
64715;DHT22;51144;53.002;6.506;2023-05-13T04:56:56;11.70;99.90
64715;DHT22;51144;53.002;6.506;2023-05-13T04:59:21;11.80;99.90
64715;DHT22;51144;53.002;6.506;2023-05-13T05:01:47;11.90;99.90
64715;DHT22;51144;53.002;6.506;2023-05-13T05:04:13;12.10;99.90
64715;DHT22;51144;53.002;6.506;2023-05-13T05:06:38;12.20;99.90
64715;DHT22;51144;53.002;6.506;2023-05-13T05:09:04;12.30;99.90
64715;DHT22;51144;53.002;6.506;2023-05-13T05:11:29;12.50;99.90
64715;DHT22;51144;53.002;6.506;2023-05-13T05:13:55;12.50;99.90
64715;DHT22;51144;53.002;6.506;2023-05-13T05:16:20;12.70;99.90
64715;DHT22;51144;53.002;6.506;2023-05-13T05:18:46;12.80;99.90
64715;DHT22;51144;53.002;6.506;2023-05-13T05:21:12;13.00;99.90
64715;DHT22;51144;53.002;6.506;2023-05-13T05:23:37;13.10;99.90
64715;DHT22;51144;53.002;6.506;2023-05-13T05:26:03;13.30;99.90
64715;DHT22;51144;53.002;6.506;2023-05-13T05:28:29;13.50;99.90
64715;DHT22;51144;53.002;6.506;2023-05-13T05:30:54;13.80;99.90
64715;DHT22;51144;53.002;6.506;2023-05-13T05:33:20;14.10;99.90
64715;DHT22;51144;53.002;6.506;2023-05-13T05:35:46;14.50;99.90
64715;DHT22;51144;53.002;6.506;2023-05-13T05:38:11;14.60;99.90
64715;DHT22;51144;53.002;6.506;2023-05-13T05:40:38;14.80;99.90
64715;DHT22;51144;53.002;6.506;2023-05-13T05:43:04;14.90;99.90
64715;DHT22;51144;53.002;6.506;2023-05-13T05:45:29;15.00;99.90
64715;DHT22;51144;53.002;6.506;2023-05-13T05:47:55;15.00;99.90
64715;DHT22;51144;53.002;6.506;2023-05-13T05:50:22;15.20;99.90
64715;DHT22;51144;53.002;6.506;2023-05-13T05:52:48;15.30;99.90
64715;DHT22;51144;53.002;6.506;2023-05-13T05:55:13;15.50;99.90
64715;DHT22;51144;53.002;6.506;2023-05-13T05:57:39;15.60;99.90
64715;DHT22;51144;53.002;6.506;2023-05-13T06:00:05;15.60;99.90
64715;DHT22;51144;53.002;6.506;2023-05-13T06:02:31;15.80;99.90
64715;DHT22;51144;53.002;6.506;2023-05-13T06:04:56;16.00;99.90
64715;DHT22;51144;53.002;6.506;2023-05-13T06:07:22;16.20;99.90
64715;DHT22;51144;53.002;6.506;2023-05-13T06:09:47;16.30;99.90
64715;DHT22;51144;53.002;6.506;2023-05-13T06:12:13;16.50;99.90
64715;DHT22;51144;53.002;6.506;2023-05-13T06:14:38;16.80;99.90
64715;DHT22;51144;53.002;6.506;2023-05-13T06:17:04;16.90;99.90
64715;DHT22;51144;53.002;6.506;2023-05-13T06:19:29;17.10;99.90
64715;DHT22;51144;53.002;6.506;2023-05-13T06:21:55;17.40;99.90
64715;DHT22;51144;53.002;6.506;2023-05-13T06:24:20;17.40;99.90
64715;DHT22;51144;53.002;6.506;2023-05-13T06:26:46;17.30;99.90
64715;DHT22;51144;53.002;6.506;2023-05-13T06:29:11;17.60;99.90
64715;DHT22;51144;53.002;6.506;2023-05-13T06:31:37;17.70;99.90
64715;DHT22;51144;53.002;6.506;2023-05-13T06:34:02;17.90;99.90
64715;DHT22;51144;53.002;6.506;2023-05-13T06:36:28;18.10;99.90
64715;DHT22;51144;53.002;6.506;2023-05-13T06:38:53;18.10;99.90
64715;DHT22;51144;53.002;6.506;2023-05-13T06:41:19;18.40;99.90
64715;DHT22;51144;53.002;6.506;2023-05-13T06:43:45;18.60;99.90
64715;DHT22;51144;53.002;6.506;2023-05-13T06:46:10;18.70;99.90
64715;DHT22;51144;53.002;6.506;2023-05-13T06:48:36;18.80;99.90
64715;DHT22;51144;53.002;6.506;2023-05-13T06:51:02;18.60;99.90
64715;DHT22;51144;53.002;6.506;2023-05-13T06:53:57;18.30;99.90
64715;DHT22;51144;53.002;6.506;2023-05-13T06:56:22;18.60;99.90
64715;DHT22;51144;53.002;6.506;2023-05-13T06:58:48;18.60;99.90
64715;DHT22;51144;53.002;6.506;2023-05-13T07:01:15;18.60;99.90
64715;DHT22;51144;53.002;6.506;2023-05-13T07:03:41;18.70;99.90
64715;DHT22;51144;53.002;6.506;2023-05-13T07:06:06;18.60;99.90
64715;DHT22;51144;53.002;6.506;2023-05-13T07:08:32;19.00;99.90
64715;DHT22;51144;53.002;6.506;2023-05-13T07:10:57;19.00;99.90
64715;DHT22;51144;53.002;6.506;2023-05-13T07:13:23;19.20;99.90
64715;DHT22;51144;53.002;6.506;2023-05-13T07:15:48;19.00;99.90
64715;DHT22;51144;53.002;6.506;2023-05-13T07:18:14;19.20;99.90
64715;DHT22;51144;53.002;6.506;2023-05-13T07:20:40;19.30;99.90
64715;DHT22;51144;53.002;6.506;2023-05-13T07:23:05;19.40;99.90
64715;DHT22;51144;53.002;6.506;2023-05-13T07:25:31;19.20;99.90
64715;DHT22;51144;53.002;6.506;2023-05-13T07:27:56;19.30;99.90
64715;DHT22;51144;53.002;6.506;2023-05-13T07:30:22;19.10;99.90
64715;DHT22;51144;53.002;6.506;2023-05-13T07:32:47;19.40;99.90
64715;DHT22;51144;53.002;6.506;2023-05-13T07:35:13;19.50;99.90
64715;DHT22;51144;53.002;6.506;2023-05-13T07:37:39;19.70;99.90
64715;DHT22;51144;53.002;6.506;2023-05-13T07:40:05;19.90;99.90
64715;DHT22;51144;53.002;6.506;2023-05-13T07:42:30;19.80;99.90
64715;DHT22;51144;53.002;6.506;2023-05-13T07:44:56;20.00;99.90
64715;DHT22;51144;53.002;6.506;2023-05-13T07:47:22;20.10;99.90
64715;DHT22;51144;53.002;6.506;2023-05-13T07:49:48;20.00;99.90
64715;DHT22;51144;53.002;6.506;2023-05-13T07:52:13;20.10;99.90
64715;DHT22;51144;53.002;6.506;2023-05-13T07:54:39;20.20;99.90
64715;DHT22;51144;53.002;6.506;2023-05-13T07:57:04;20.30;99.90
64715;DHT22;51144;53.002;6.506;2023-05-13T07:59:30;20.60;99.90
64715;DHT22;51144;53.002;6.506;2023-05-13T08:01:56;20.80;99.60
64715;DHT22;51144;53.002;6.506;2023-05-13T08:04:21;20.90;99.80
64715;DHT22;51144;53.002;6.506;2023-05-13T08:06:47;20.80;99.40
64715;DHT22;51144;53.002;6.506;2023-05-13T08:09:12;21.10;99.90
64715;DHT22;51144;53.002;6.506;2023-05-13T08:11:38;21.20;99.90
64715;DHT22;51144;53.002;6.506;2023-05-13T08:14:04;21.40;99.90
64715;DHT22;51144;53.002;6.506;2023-05-13T08:16:30;21.50;98.20
64715;DHT22;51144;53.002;6.506;2023-05-13T08:18:55;21.60;99.70
64715;DHT22;51144;53.002;6.506;2023-05-13T08:21:21;21.60;98.90
64715;DHT22;51144;53.002;6.506;2023-05-13T08:23:48;21.70;99.40
64715;DHT22;51144;53.002;6.506;2023-05-13T08:26:14;21.90;99.80
64715;DHT22;51144;53.002;6.506;2023-05-13T08:28:39;22.00;99.20
64715;DHT22;51144;53.002;6.506;2023-05-13T08:31:05;22.20;99.90
64715;DHT22;51144;53.002;6.506;2023-05-13T08:33:31;22.30;98.70
64715;DHT22;51144;53.002;6.506;2023-05-13T08:35:58;22.20;98.30
64715;DHT22;51144;53.002;6.506;2023-05-13T08:38:23;22.30;98.80
64715;DHT22;51144;53.002;6.506;2023-05-13T08:40:49;22.30;98.10
64715;DHT22;51144;53.002;6.506;2023-05-13T08:43:14;22.30;98.80
64715;DHT22;51144;53.002;6.506;2023-05-13T08:45:40;22.20;97.20
64715;DHT22;51144;53.002;6.506;2023-05-13T08:48:07;22.30;96.50
64715;DHT22;51144;53.002;6.506;2023-05-13T08:50:33;22.30;96.40
64715;DHT22;51144;53.002;6.506;2023-05-13T08:52:59;22.20;98.10
64715;DHT22;51144;53.002;6.506;2023-05-13T08:55:24;22.20;97.30
64715;DHT22;51144;53.002;6.506;2023-05-13T08:57:50;22.20;97.70
64715;DHT22;51144;53.002;6.506;2023-05-13T09:00:16;22.30;96.90
64715;DHT22;51144;53.002;6.506;2023-05-13T09:02:42;22.30;98.00
64715;DHT22;51144;53.002;6.506;2023-05-13T09:05:08;22.60;96.70
64715;DHT22;51144;53.002;6.506;2023-05-13T09:07:34;22.70;97.40
64715;DHT22;51144;53.002;6.506;2023-05-13T09:10:00;22.60;98.00
64715;DHT22;51144;53.002;6.506;2023-05-13T09:15:07;23.00;98.00
64715;DHT22;51144;53.002;6.506;2023-05-13T09:17:35;23.10;94.00
64715;DHT22;51144;53.002;6.506;2023-05-13T09:20:06;23.30;95.20
64715;DHT22;51144;53.002;6.506;2023-05-13T09:22:31;23.20;93.60
64715;DHT22;51144;53.002;6.506;2023-05-13T09:24:57;22.90;91.60
64715;DHT22;51144;53.002;6.506;2023-05-13T09:27:30;23.10;94.20
64715;DHT22;51144;53.002;6.506;2023-05-13T09:30:00;23.10;91.60
64715;DHT22;51144;53.002;6.506;2023-05-13T09:32:25;23.40;92.10
64715;DHT22;51144;53.002;6.506;2023-05-13T09:34:51;23.70;95.40
64715;DHT22;51144;53.002;6.506;2023-05-13T09:37:16;23.70;94.50
64715;DHT22;51144;53.002;6.506;2023-05-13T09:39:43;23.90;93.30
64715;DHT22;51144;53.002;6.506;2023-05-13T09:42:15;24.00;92.00
64715;DHT22;51144;53.002;6.506;2023-05-13T09:44:44;24.10;92.40
64715;DHT22;51144;53.002;6.506;2023-05-13T09:47:13;24.20;91.00
64715;DHT22;51144;53.002;6.506;2023-05-13T09:49:39;24.30;92.00
64715;DHT22;51144;53.002;6.506;2023-05-13T09:52:05;24.10;90.00
64715;DHT22;51144;53.002;6.506;2023-05-13T09:54:34;24.30;91.40
64715;DHT22;51144;53.002;6.506;2023-05-13T09:57:00;24.40;93.30
64715;DHT22;51144;53.002;6.506;2023-05-13T09:59:26;24.20;91.00
64715;DHT22;51144;53.002;6.506;2023-05-13T10:01:52;24.20;90.20
64715;DHT22;51144;53.002;6.506;2023-05-13T10:04:18;24.40;89.80
64715;DHT22;51144;53.002;6.506;2023-05-13T10:06:43;24.20;87.20
64715;DHT22;51144;53.002;6.506;2023-05-13T10:09:09;24.00;85.90
64715;DHT22;51144;53.002;6.506;2023-05-13T10:11:35;24.10;90.40
64715;DHT22;51144;53.002;6.506;2023-05-13T10:14:02;24.50;89.60
64715;DHT22;51144;53.002;6.506;2023-05-13T10:16:29;24.50;89.00
64715;DHT22;51144;53.002;6.506;2023-05-13T10:18:56;24.50;86.20
64715;DHT22;51144;53.002;6.506;2023-05-13T10:21:23;24.40;85.10
64715;DHT22;51144;53.002;6.506;2023-05-13T10:23:49;24.20;86.90
64715;DHT22;51144;53.002;6.506;2023-05-13T10:26:21;23.90;89.40
64715;DHT22;51144;53.002;6.506;2023-05-13T10:28:47;23.90;90.30
64715;DHT22;51144;53.002;6.506;2023-05-13T10:31:50;24.10;89.30
64715;DHT22;51144;53.002;6.506;2023-05-13T10:34:16;23.90;86.50
64715;DHT22;51144;53.002;6.506;2023-05-13T10:44:29;24.40;91.50
64715;DHT22;51144;53.002;6.506;2023-05-13T10:46:56;24.70;91.00
64715;DHT22;51144;53.002;6.506;2023-05-13T10:49:21;24.60;88.60
64715;DHT22;51144;53.002;6.506;2023-05-13T10:51:49;25.00;89.70
64715;DHT22;51144;53.002;6.506;2023-05-13T10:54:22;24.90;83.00
64715;DHT22;51144;53.002;6.506;2023-05-13T10:56:57;24.50;90.00
64715;DHT22;51144;53.002;6.506;2023-05-13T10:59:23;24.60;83.70
64715;DHT22;51144;53.002;6.506;2023-05-13T11:01:48;24.60;83.80
64715;DHT22;51144;53.002;6.506;2023-05-13T11:04:15;24.70;82.80
64715;DHT22;51144;53.002;6.506;2023-05-13T11:06:41;24.60;80.60
64715;DHT22;51144;53.002;6.506;2023-05-13T11:11:37;24.70;84.70
64715;DHT22;51144;53.002;6.506;2023-05-13T11:14:07;24.80;81.90
64715;DHT22;51144;53.002;6.506;2023-05-13T11:16:35;24.90;87.10
64715;DHT22;51144;53.002;6.506;2023-05-13T11:19:01;25.20;90.20
64715;DHT22;51144;53.002;6.506;2023-05-13T11:21:31;25.00;85.20
64715;DHT22;51144;53.002;6.506;2023-05-13T11:24:01;24.40;84.90
64715;DHT22;51144;53.002;6.506;2023-05-13T11:26:46;24.60;86.50
64715;DHT22;51144;53.002;6.506;2023-05-13T11:29:12;24.50;83.10
64715;DHT22;51144;53.002;6.506;2023-05-13T11:31:42;24.50;83.40
64715;DHT22;51144;53.002;6.506;2023-05-13T11:34:12;24.80;87.90
64715;DHT22;51144;53.002;6.506;2023-05-13T11:36:38;25.10;85.60
64715;DHT22;51144;53.002;6.506;2023-05-13T11:39:14;25.10;79.10
64715;DHT22;51144;53.002;6.506;2023-05-13T11:41:42;25.10;80.90
64715;DHT22;51144;53.002;6.506;2023-05-13T11:44:07;25.10;87.70
64715;DHT22;51144;53.002;6.506;2023-05-13T11:46:33;24.90;84.80
64715;DHT22;51144;53.002;6.506;2023-05-13T11:48:59;24.70;85.50
64715;DHT22;51144;53.002;6.506;2023-05-13T11:51:24;25.00;88.10
64715;DHT22;51144;53.002;6.506;2023-05-13T11:53:50;25.50;84.20
64715;DHT22;51144;53.002;6.506;2023-05-13T11:56:17;25.40;83.00
64715;DHT22;51144;53.002;6.506;2023-05-13T11:58:43;25.90;82.60
64715;DHT22;51144;53.002;6.506;2023-05-13T12:01:15;26.10;77.00
64715;DHT22;51144;53.002;6.506;2023-05-13T12:03:40;26.40;84.40
64715;DHT22;51144;53.002;6.506;2023-05-13T12:06:06;26.80;84.40
64715;DHT22;51144;53.002;6.506;2023-05-13T12:08:31;26.70;78.40
64715;DHT22;51144;53.002;6.506;2023-05-13T12:10:58;26.50;66.50
64715;DHT22;51144;53.002;6.506;2023-05-13T12:13:23;26.50;68.30
64715;DHT22;51144;53.002;6.506;2023-05-13T12:15:49;26.50;71.40
64715;DHT22;51144;53.002;6.506;2023-05-13T12:18:15;26.40;68.80
64715;DHT22;51144;53.002;6.506;2023-05-13T12:20:40;26.50;71.20
64715;DHT22;51144;53.002;6.506;2023-05-13T12:23:06;26.30;63.30
64715;DHT22;51144;53.002;6.506;2023-05-13T12:25:43;26.40;68.40
64715;DHT22;51144;53.002;6.506;2023-05-13T12:30:39;26.60;68.70
64715;DHT22;51144;53.002;6.506;2023-05-13T12:33:05;26.40;65.80
64715;DHT22;51144;53.002;6.506;2023-05-13T12:35:36;26.50;69.30
64715;DHT22;51144;53.002;6.506;2023-05-13T12:38:02;26.80;71.80
64715;DHT22;51144;53.002;6.506;2023-05-13T12:40:28;26.70;69.50
64715;DHT22;51144;53.002;6.506;2023-05-13T12:43:00;26.60;69.50
64715;DHT22;51144;53.002;6.506;2023-05-13T12:45:29;26.90;67.20
64715;DHT22;51144;53.002;6.506;2023-05-13T12:47:56;26.10;67.20
64715;DHT22;51144;53.002;6.506;2023-05-13T12:50:22;25.80;68.10
64715;DHT22;51144;53.002;6.506;2023-05-13T12:52:47;25.30;69.70
64715;DHT22;51144;53.002;6.506;2023-05-13T12:55:13;25.10;70.50
64715;DHT22;51144;53.002;6.506;2023-05-13T12:57:39;25.00;72.20
64715;DHT22;51144;53.002;6.506;2023-05-13T13:00:05;25.20;74.60
64715;DHT22;51144;53.002;6.506;2023-05-13T13:02:31;25.60;77.50
64715;DHT22;51144;53.002;6.506;2023-05-13T13:04:57;25.70;78.20
64715;DHT22;51144;53.002;6.506;2023-05-13T13:07:22;25.00;77.20
64715;DHT22;51144;53.002;6.506;2023-05-13T13:09:48;24.60;75.80
64715;DHT22;51144;53.002;6.506;2023-05-13T13:12:14;24.50;78.90
64715;DHT22;51144;53.002;6.506;2023-05-13T13:14:39;24.70;80.00
64715;DHT22;51144;53.002;6.506;2023-05-13T13:17:05;24.70;74.10
64715;DHT22;51144;53.002;6.506;2023-05-13T13:19:31;25.00;77.90
64715;DHT22;51144;53.002;6.506;2023-05-13T13:21:56;25.40;80.70
64715;DHT22;51144;53.002;6.506;2023-05-13T13:24:22;25.60;78.00
64715;DHT22;51144;53.002;6.506;2023-05-13T13:26:47;25.50;77.30
64715;DHT22;51144;53.002;6.506;2023-05-13T13:29:14;25.40;77.00
64715;DHT22;51144;53.002;6.506;2023-05-13T13:31:39;25.70;75.80
64715;DHT22;51144;53.002;6.506;2023-05-13T13:34:05;25.60;73.00
64715;DHT22;51144;53.002;6.506;2023-05-13T13:36:31;25.70;75.50
64715;DHT22;51144;53.002;6.506;2023-05-13T13:38:57;25.50;78.70
64715;DHT22;51144;53.002;6.506;2023-05-13T13:41:22;25.20;73.70
64715;DHT22;51144;53.002;6.506;2023-05-13T13:43:50;24.80;77.90
64715;DHT22;51144;53.002;6.506;2023-05-13T13:46:15;24.70;76.40
64715;DHT22;51144;53.002;6.506;2023-05-13T13:48:41;24.60;75.10
64715;DHT22;51144;53.002;6.506;2023-05-13T13:51:06;24.50;78.10
64715;DHT22;51144;53.002;6.506;2023-05-13T13:53:32;24.30;74.00
64715;DHT22;51144;53.002;6.506;2023-05-13T13:55:58;24.60;79.20
64715;DHT22;51144;53.002;6.506;2023-05-13T13:58:23;24.70;74.50
64715;DHT22;51144;53.002;6.506;2023-05-13T14:00:49;24.60;74.30
64715;DHT22;51144;53.002;6.506;2023-05-13T14:03:14;24.50;76.40
64715;DHT22;51144;53.002;6.506;2023-05-13T14:05:40;24.80;76.30
64715;DHT22;51144;53.002;6.506;2023-05-13T14:08:05;25.10;75.80
64715;DHT22;51144;53.002;6.506;2023-05-13T14:10:31;24.90;75.30
64715;DHT22;51144;53.002;6.506;2023-05-13T14:12:56;25.10;77.20
64715;DHT22;51144;53.002;6.506;2023-05-13T14:15:22;25.30;78.10
64715;DHT22;51144;53.002;6.506;2023-05-13T14:17:53;25.20;77.20
64715;DHT22;51144;53.002;6.506;2023-05-13T14:20:18;25.30;79.40
64715;DHT22;51144;53.002;6.506;2023-05-13T14:22:46;25.50;80.20
64715;DHT22;51144;53.002;6.506;2023-05-13T14:25:12;25.10;77.30
64715;DHT22;51144;53.002;6.506;2023-05-13T14:27:37;25.00;78.90
64715;DHT22;51144;53.002;6.506;2023-05-13T14:30:03;25.50;78.20
64715;DHT22;51144;53.002;6.506;2023-05-13T14:32:29;25.10;76.00
64715;DHT22;51144;53.002;6.506;2023-05-13T14:34:54;24.50;78.90
64715;DHT22;51144;53.002;6.506;2023-05-13T14:37:20;24.70;77.70
64715;DHT22;51144;53.002;6.506;2023-05-13T14:39:46;25.10;76.80
64715;DHT22;51144;53.002;6.506;2023-05-13T14:42:11;25.40;77.60
64715;DHT22;51144;53.002;6.506;2023-05-13T14:44:37;25.60;75.00
64715;DHT22;51144;53.002;6.506;2023-05-13T14:55:33;24.70;76.60
64715;DHT22;51144;53.002;6.506;2023-05-13T14:58:11;24.90;76.40
64715;DHT22;51144;53.002;6.506;2023-05-13T15:00:47;25.10;77.50
64715;DHT22;51144;53.002;6.506;2023-05-13T15:03:19;24.90;77.20
64715;DHT22;51144;53.002;6.506;2023-05-13T15:05:57;24.70;78.80
64715;DHT22;51144;53.002;6.506;2023-05-13T15:08:25;24.50;76.00
64715;DHT22;51144;53.002;6.506;2023-05-13T15:10:54;24.20;77.00
64715;DHT22;51144;53.002;6.506;2023-05-13T15:13:22;24.10;77.70
64715;DHT22;51144;53.002;6.506;2023-05-13T15:16:14;23.70;77.30
64715;DHT22;51144;53.002;6.506;2023-05-13T15:18:42;23.70;78.70
64715;DHT22;51144;53.002;6.506;2023-05-13T15:27:15;23.60;80.80
64715;DHT22;51144;53.002;6.506;2023-05-13T15:29:41;23.60;81.60
64715;DHT22;51144;53.002;6.506;2023-05-13T15:32:07;23.20;77.20
64715;DHT22;51144;53.002;6.506;2023-05-13T15:34:32;23.10;76.70
64715;DHT22;51144;53.002;6.506;2023-05-13T15:36:58;23.10;76.70
64715;DHT22;51144;53.002;6.506;2023-05-13T15:39:23;23.00;76.90
64715;DHT22;51144;53.002;6.506;2023-05-13T15:41:49;23.10;77.70
64715;DHT22;51144;53.002;6.506;2023-05-13T15:44:15;22.90;74.40
64715;DHT22;51144;53.002;6.506;2023-05-13T15:46:40;22.80;74.60
64715;DHT22;51144;53.002;6.506;2023-05-13T15:49:06;22.80;73.90
64715;DHT22;51144;53.002;6.506;2023-05-13T15:51:32;22.90;73.00
64715;DHT22;51144;53.002;6.506;2023-05-13T15:53:57;22.80;73.00
64715;DHT22;51144;53.002;6.506;2023-05-13T15:56:24;22.70;68.90
64715;DHT22;51144;53.002;6.506;2023-05-13T15:58:50;22.60;68.30